メインページ
METAR-TAF:

METAR-TAF

空港 :

マルティニーク・エメ・セゼール国際空港

フォール=ド=フランス, マルティニーク

緯度: 14-36N, 経度: 061-00W, 海抜: 5m

現時点の気象観測

当レポートは11分前の20:00(UTC)に作成
東/南東の風 16kt
気温 28°C
湿度 62%
気圧 1016 hPa
視程10km以上
1,500メートル以下は雲なし、積乱雲なし

METAR: TFFF 212000Z AUTO 11016KT CAVOK 28/20 Q1016

時間: 16:11 (20:11 UTC)

予報

当レポートは16時間11分前の04:00(UTC)に作成
予報は21日の 06時(UTC)から 22日の 06時(UTC)まで有効
東/南東の風 6kt
視程10km以上
高度2600ftの雲は散在している

TAF: TFFF 210400Z 2106/2206 11006KT 9999 SCT026

4,000以上の空港の気象観測と天気予報(METAR報とTAF報)

利用可能な観測所は地図上に黄色い丸と赤い丸で示す。

丸の上にカーソルを重ねると観測所名を参照できる。

次にクリックすると気象観測と天気予報を参照できる。

マップの切り替え:黒色「×」印の緑ボタンをクリックして拡大、「-」印の緑ボタンをクリックして縮小、緑色の三角印をクリックして隣りの地図に切り替え


METAR-TAF: